Big Bear Station Historical Data
Daily Summary for July 1, 2017 Units:  English    Metric   Both
« Previous Day
Next Day »
Daily Weekly Monthly Yearly Custom
  High: Low: Average:
Temperature: 84.9 °F 47.8 °F 66 °F
Dew Point: 44.7 °F 29.5 °F 36.8 °F
Humidity: 70 % 19 % 38 %
Wind Speed: 10.4 mph 0.0 mph 2.3 mph
Wind Gust: -999.0 mph - -
Wind:- - West
Pressure: 30.22 in 30.17 in -
Precipitation: 0.00 in    
Historical Graphs
 
 
Tabular Data for July 1, 2017
Time Temperature Dew Point Pressure Wind Wind Speed Wind Gust Humidity Rainfall Rate (Hourly)
00:04 55.2 °F 33.7 °F 30.22 in Calm   -999.0 mph 44 % 0 in
00:19 54.9 °F 33.4 °F 30.22 in Calm   -999.0 mph 44 % 0 in
00:34 54.3 °F 31.7 °F 30.22 in Calm   -999.0 mph 42 % 0 in
00:49 53.8 °F 32.9 °F 30.21 in Calm   -999.0 mph 45 % 0 in
01:04 53.6 °F 32.2 °F 30.21 in Calm   -999.0 mph 44 % 0 in
01:20 53.2 °F 34.0 °F 30.21 in Calm   -999.0 mph 48 % 0 in
01:35 52.7 °F 34.1 °F 30.20 in Calm   -999.0 mph 49 % 0 in
01:50 52.3 °F 36.6 °F 30.20 in Calm   -999.0 mph 55 % 0 in
02:05 52.0 °F 36.3 °F 30.20 in Calm   -999.0 mph 55 % 0 in
02:20 51.4 °F 32.9 °F 30.19 in Calm   -999.0 mph 49 % 0 in
02:36 51.1 °F 32.6 °F 30.19 in Calm   -999.0 mph 49 % 0 in
02:51 50.9 °F 34.8 °F 30.19 in Calm   -999.0 mph 54 % 0 in
03:06 50.5 °F 34.5 °F 30.19 in Calm   -999.0 mph 54 % 0 in
03:21 50.2 °F 33.7 °F 30.18 in Calm   -999.0 mph 53 % 0 in
03:36 50.0 °F 34.0 °F 30.18 in Calm   -999.0 mph 54 % 0 in
03:52 49.6 °F 34.1 °F 30.18 in Calm   -999.0 mph 55 % 0 in
04:07 49.3 °F 34.7 °F 30.18 in Calm   -999.0 mph 57 % 0 in
04:22 49.1 °F 34.1 °F 30.18 in South 1.7 mph -999.0 mph 56 % 0 in
04:37 48.9 °F 34.3 °F 30.18 in SSE 2.2 mph -999.0 mph 57 % 0 in
04:53 48.7 °F 35.0 °F 30.18 in SSE 2.2 mph -999.0 mph 59 % 0 in
05:08 48.6 °F 34.5 °F 30.19 in SSE 1.7 mph -999.0 mph 58 % 0 in
05:23 48.2 °F 34.1 °F 30.19 in SSE 1.1 mph -999.0 mph 58 % 0 in
05:38 48.0 °F 34.8 °F 30.19 in Calm   -999.0 mph 60 % 0 in
05:53 47.8 °F 35.0 °F 30.19 in Calm   -999.0 mph 61 % 0 in
06:09 47.8 °F 35.4 °F 30.19 in Calm   -999.0 mph 62 % 0 in
06:24 48.0 °F 37.2 °F 30.19 in Calm   -999.0 mph 66 % 0 in
06:39 47.8 °F 38.5 °F 30.19 in Calm   -999.0 mph 70 % 0 in
06:54 48.4 °F 38.7 °F 30.19 in Calm   -999.0 mph 69 % 0 in
07:09 49.8 °F 39.3 °F 30.20 in Calm   -999.0 mph 67 % 0 in
07:25 50.4 °F 39.9 °F 30.20 in Calm   -999.0 mph 67 % 0 in
07:40 51.6 °F 41.4 °F 30.20 in Calm   -999.0 mph 68 % 0 in
07:55 52.9 °F 41.9 °F 30.20 in Calm   -999.0 mph 66 % 0 in
08:10 55.2 °F 42.8 °F 30.20 in Calm   -999.0 mph 63 % 0 in
08:25 57.4 °F 43.6 °F 30.20 in Calm   -999.0 mph 60 % 0 in
08:41 59.0 °F 44.7 °F 30.20 in Calm   -999.0 mph 59 % 0 in
08:56 61.2 °F 43.4 °F 30.20 in Calm   -999.0 mph 52 % 0 in
09:11 64.0 °F 41.6 °F 30.20 in Calm   -999.0 mph 44 % 0 in
09:27 68.2 °F 37.2 °F 30.20 in NW 1.7 mph -999.0 mph 32 % 0 in
09:42 72.0 °F 33.2 °F 30.20 in NW 2.2 mph -999.0 mph 24 % 0 in
09:58 73.8 °F 34.7 °F 30.20 in NNW 4.7 mph -999.0 mph 24 % 0 in
10:13 74.7 °F 35.5 °F 30.20 in ENE 4.2 mph -999.0 mph 24 % 0 in
10:28 75.7 °F 35.3 °F 30.20 in NW 3.2 mph -999.0 mph 23 % 0 in
10:44 76.5 °F 37.0 °F 30.20 in North 5.3 mph -999.0 mph 24 % 0 in
11:14 78.1 °F 33.8 °F 30.20 in NW 3.2 mph -999.0 mph 20 % 0 in
11:29 78.6 °F 35.4 °F 30.20 in NW 3.2 mph -999.0 mph 21 % 0 in
11:44 79.7 °F 38.6 °F 30.21 in NW 5.3 mph -999.0 mph 23 % 0 in
12:00 81.7 °F 36.7 °F 30.20 in NW 3.7 mph -999.0 mph 20 % 0 in
12:15 82.6 °F 36.2 °F 30.20 in WNW 4.2 mph -999.0 mph 19 % 0 in
12:31 82.9 °F 39.0 °F 30.20 in NNW 5.8 mph -999.0 mph 21 % 0 in
12:46 84.0 °F 38.6 °F 30.20 in NW 5.3 mph -999.0 mph 20 % 0 in
13:01 84.9 °F 40.6 °F 30.20 in NW 4.7 mph -999.0 mph 21 % 0 in
13:16 84.6 °F 40.4 °F 30.20 in NNW 5.3 mph -999.0 mph 21 % 0 in
13:31 84.4 °F 41.4 °F 30.19 in WNW 6.3 mph -999.0 mph 22 % 0 in
13:47 84.2 °F 38.8 °F 30.19 in North 4.7 mph -999.0 mph 20 % 0 in
14:02 84.7 °F 37.9 °F 30.19 in SSE 2.7 mph -999.0 mph 19 % 0 in
14:17 83.1 °F 39.1 °F 30.19 in NW 4.2 mph -999.0 mph 21 % 0 in
14:33 83.8 °F 38.5 °F 30.19 in NW 6.8 mph -999.0 mph 20 % 0 in
14:48 82.9 °F 37.7 °F 30.18 in NNW 4.7 mph -999.0 mph 20 % 0 in
15:03 83.5 °F 38.2 °F 30.18 in WNW 10.4 mph -999.0 mph 20 % 0 in
15:18 82.8 °F 38.9 °F 30.18 in NNW 4.7 mph -999.0 mph 21 % 0 in
15:33 82.6 °F 38.7 °F 30.18 in NNE 4.7 mph -999.0 mph 21 % 0 in
15:49 81.7 °F 38.0 °F 30.18 in North 4.7 mph -999.0 mph 21 % 0 in
16:04 82.0 °F 37.0 °F 30.17 in West 7.8 mph -999.0 mph 20 % 0 in
16:19 81.1 °F 36.2 °F 30.17 in South 2.2 mph -999.0 mph 20 % 0 in
16:35 81.1 °F 37.5 °F 30.17 in NW 2.2 mph -999.0 mph 21 % 0 in
16:50 81.9 °F 38.1 °F 30.17 in SW 2.2 mph -999.0 mph 21 % 0 in
17:05 82.8 °F 40.1 °F 30.17 in WNW 4.7 mph -999.0 mph 22 % 0 in
17:20 81.9 °F 38.1 °F 30.17 in NNW 2.7 mph -999.0 mph 21 % 0 in
17:35 80.1 °F 37.8 °F 30.17 in NW 4.2 mph -999.0 mph 22 % 0 in
17:51 79.3 °F 36.0 °F 30.17 in WNW 6.3 mph -999.0 mph 21 % 0 in
18:06 78.3 °F 36.3 °F 30.18 in SSW 1.7 mph -999.0 mph 22 % 0 in
18:21 79.0 °F 38.0 °F 30.18 in Calm   -999.0 mph 23 % 0 in
18:37 78.6 °F 41.8 °F 30.18 in NW 3.7 mph -999.0 mph 27 % 0 in
18:53 76.5 °F 40.0 °F 30.18 in NNE 8.3 mph -999.0 mph 27 % 0 in
19:08 75.6 °F 41.1 °F 30.18 in NW 3.7 mph -999.0 mph 29 % 0 in
19:23 72.9 °F 41.3 °F 30.18 in NW 3.2 mph -999.0 mph 32 % 0 in
19:38 69.6 °F 40.0 °F 30.18 in NNW 2.7 mph -999.0 mph 34 % 0 in
19:54 67.8 °F 39.1 °F 30.18 in North 2.7 mph -999.0 mph 35 % 0 in
20:09 66.7 °F 38.2 °F 30.18 in NW 8.3 mph -999.0 mph 35 % 0 in
20:24 66.0 °F 37.6 °F 30.18 in SSW 4.2 mph -999.0 mph 35 % 0 in
20:40 65.7 °F 37.3 °F 30.18 in NW 2.2 mph -999.0 mph 35 % 0 in
20:55 64.9 °F 36.6 °F 30.18 in NNE 1.1 mph -999.0 mph 35 % 0 in
21:10 64.6 °F 36.3 °F 30.19 in East 1.7 mph -999.0 mph 35 % 0 in
21:25 64.2 °F 35.2 °F 30.19 in ENE 1.1 mph -999.0 mph 34 % 0 in
21:40 64.0 °F 35.8 °F 30.19 in NNW 2.2 mph -999.0 mph 35 % 0 in
21:56 63.7 °F 36.2 °F 30.20 in Calm   -999.0 mph 36 % 0 in
22:11 63.1 °F 35.7 °F 30.20 in West 1.1 mph -999.0 mph 36 % 0 in
22:26 63.0 °F 34.2 °F 30.20 in WNW 4.2 mph -999.0 mph 34 % 0 in
22:41 63.1 °F 33.5 °F 30.20 in Calm   -999.0 mph 33 % 0 in
22:56 63.3 °F 32.9 °F 30.20 in SSE 2.2 mph -999.0 mph 32 % 0 in
23:12 63.0 °F 31.9 °F 30.20 in North 2.7 mph -999.0 mph 31 % 0 in
23:27 62.4 °F 30.5 °F 30.20 in North 2.7 mph -999.0 mph 30 % 0 in
23:42 62.1 °F 29.5 °F 30.20 in Calm   -999.0 mph 29 % 0 in
23:57 62.1 °F 30.3 °F 30.19 in Calm   -999.0 mph 30 % 0 in
Big Bear CA Weather
Compliments of Weather Underground - 1.5 mb